Terminal Aerodrome Forecast
Issued by NWS Wilmington, OH

Current Version | Previous Version | Text Only | Print | Product List | Glossary Off
Versions: 1 2 3 4 5 6 7 8 9 10 11 12 13 14 15 16 17 18 19 20 21 22 23 24 25 26 27 28 29 30 31 32

000
FTUS41 KILN 191400 AAB
TAFCVG
TAF AMD
KCVG 191458Z 1915/2018 22004KT P6SM SCT020
     FM191700 23008KT P6SM SCT040
     FM200300 23006KT P6SM VCTS BKN040CB
     FM200900 21005KT P6SM BKN040
     FM201400 26008KT P6SM SCT040=

USA.gov is the U.S. government's official web portal to all federal, state and local government web resources and services.